createdAt,value
2017-09-20T00:00:04.753Z,97259.05
2017-09-20T00:02:32.335Z,97261.55
2017-09-20T00:04:59.907Z,97259.86
2017-09-20T00:07:27.472Z,97257.77
2017-09-20T00:09:55.041Z,97259.05
2017-09-20T00:12:22.960Z,97258.23
2017-09-20T00:14:50.529Z,97260.70
2017-09-20T00:17:18.085Z,97265.33
2017-09-20T00:19:45.669Z,97265.30
2017-09-20T00:22:13.239Z,97262.34
2017-09-20T00:24:41.666Z,97264.48
2017-09-20T00:27:09.212Z,97265.73
2017-09-20T00:29:36.757Z,97271.22
2017-09-20T00:32:04.901Z,97262.72
2017-09-20T00:34:32.449Z,97257.64
2017-09-20T00:37:01.640Z,97261.89
2017-09-20T00:39:29.213Z,97255.95
2017-09-20T00:41:56.764Z,97258.45
2017-09-20T00:44:24.726Z,97258.38
2017-09-20T00:46:52.935Z,97257.10
2017-09-20T00:49:20.494Z,97252.84
2017-09-20T00:51:48.433Z,97256.15
2017-09-20T00:54:16.024Z,97256.56
2017-09-20T00:56:43.593Z,97251.02
2017-09-20T00:59:11.514Z,97258.17
2017-09-20T01:01:39.077Z,97257.25
2017-09-20T01:04:06.643Z,97255.06
2017-09-20T01:06:34.249Z,97257.04
2017-09-20T01:09:01.821Z,97258.27
2017-09-20T01:11:29.416Z,97254.84
2017-09-20T01:13:57.097Z,97258.16
2017-09-20T01:16:24.672Z,97257.27
2017-09-20T01:18:52.249Z,97252.56
2017-09-20T01:21:32.059Z,97260.95
2017-09-20T01:23:59.654Z,97251.19
2017-09-20T01:26:27.217Z,97258.36
2017-09-20T01:28:54.965Z,97257.04
2017-09-20T01:31:22.635Z,97261.60
2017-09-20T01:33:50.769Z,97260.70
2017-09-20T01:36:18.327Z,97262.68
2017-09-20T01:38:46.383Z,97260.55
2017-09-20T01:41:13.977Z,97265.58
2017-09-20T01:43:41.557Z,97266.81
2017-09-20T01:46:09.488Z,97264.25
2017-09-20T01:48:37.049Z,97268.00
2017-09-20T01:51:04.613Z,97265.02
2017-09-20T01:53:32.201Z,97267.47
2017-09-20T01:55:59.751Z,97271.25
2017-09-20T01:58:27.696Z,97274.11
2017-09-20T02:00:55.259Z,97277.45
2017-09-20T02:03:22.803Z,97271.09
2017-09-20T02:05:50.378Z,97271.50
2017-09-20T02:08:17.939Z,97271.38
2017-09-20T02:10:45.935Z,97278.51
2017-09-20T02:13:13.685Z,97277.59
2017-09-20T02:15:42.816Z,97284.73
2017-09-20T02:18:10.458Z,97282.91
2017-09-20T02:20:38.007Z,97278.25
2017-09-20T02:23:05.958Z,97279.03
2017-09-20T02:25:33.506Z,97281.09
2017-09-20T02:28:01.183Z,97283.60
2017-09-20T02:30:28.765Z,97287.39
2017-09-20T02:32:56.386Z,97286.91
2017-09-20T02:35:24.262Z,97294.11
2017-09-20T02:37:51.827Z,97293.64
2017-09-20T02:40:19.384Z,97297.81
2017-09-20T02:42:46.966Z,97294.83
2017-09-20T02:45:14.527Z,97300.69
2017-09-20T02:47:42.472Z,97305.32
2017-09-20T02:50:10.044Z,97309.98
2017-09-20T02:52:37.691Z,97309.15
2017-09-20T02:55:05.465Z,97308.77
2017-09-20T02:57:33.028Z,97314.66
2017-09-20T03:00:00.998Z,97313.89
2017-09-20T03:02:28.555Z,97313.09
2017-09-20T03:04:56.129Z,97312.73
2017-09-20T03:07:24.078Z,97317.45
2017-09-20T03:09:51.631Z,97318.37
2017-09-20T03:12:19.902Z,97313.79
2017-09-20T03:14:47.486Z,97316.38
2017-09-20T03:17:15.039Z,97316.78
2017-09-20T03:19:42.935Z,97317.27
2017-09-20T03:22:10.708Z,97312.69
2017-09-20T03:24:38.268Z,97315.76
2017-09-20T03:27:05.851Z,97313.80
2017-09-20T03:29:33.487Z,97314.69
2017-09-20T03:32:01.314Z,97315.97
2017-09-20T03:34:28.874Z,97317.72
2017-09-20T03:36:56.445Z,97314.34
2017-09-20T03:39:24.022Z,97317.80
2017-09-20T03:41:56.637Z,97319.04
2017-09-20T03:44:24.512Z,97321.97
2017-09-20T03:46:52.085Z,97329.66
2017-09-20T03:49:19.651Z,97322.94
2017-09-20T03:51:47.221Z,97323.88
2017-09-20T03:54:14.791Z,97325.60
2017-09-20T03:56:42.763Z,97323.95
2017-09-20T03:59:10.356Z,97326.52
2017-09-20T04:01:37.927Z,97326.19
2017-09-20T04:04:05.509Z,97321.19
2017-09-20T04:06:33.052Z,97323.83
2017-09-20T04:09:00.960Z,97323.42
2017-09-20T04:11:28.542Z,97329.28
2017-09-20T04:13:56.084Z,97330.54
2017-09-20T04:16:23.653Z,97335.17
2017-09-20T04:18:51.234Z,97336.06
2017-09-20T04:21:19.148Z,97335.23
2017-09-20T04:23:46.712Z,97335.71
2017-09-20T04:26:14.322Z,97336.97
2017-09-20T04:28:41.898Z,97341.23
2017-09-20T04:31:09.464Z,97341.69
2017-09-20T04:33:37.377Z,97347.62
2017-09-20T04:36:04.977Z,97351.01
2017-09-20T04:38:32.566Z,97358.69
2017-09-20T04:41:00.162Z,97355.70
2017-09-20T04:43:27.706Z,97351.44
2017-09-20T04:45:55.534Z,97359.05
2017-09-20T04:48:23.080Z,97353.59
2017-09-20T04:50:50.631Z,97349.47
2017-09-20T04:53:18.566Z,97356.98
2017-09-20T04:55:46.174Z,97354.91
2017-09-20T04:58:13.773Z,97357.40
2017-09-20T05:00:41.666Z,97356.97
2017-09-20T05:03:09.233Z,97357.42
2017-09-20T05:05:36.766Z,97359.09
2017-09-20T05:08:04.325Z,97356.97
2017-09-20T05:10:32.034Z,97367.05
2017-09-20T05:12:59.961Z,97372.52
2017-09-20T05:15:27.521Z,97373.00
2017-09-20T05:17:55.098Z,97379.45
2017-09-20T05:20:22.705Z,97385.45
2017-09-20T05:22:50.262Z,97383.78
2017-09-20T05:25:18.172Z,97387.07
2017-09-20T05:27:45.744Z,97389.58
2017-09-20T05:30:13.321Z,97389.20
2017-09-20T05:32:40.895Z,97386.42
2017-09-20T05:35:08.461Z,97391.16
2017-09-20T05:37:36.342Z,97384.44
2017-09-20T05:40:03.925Z,97397.97
2017-09-20T05:42:31.544Z,97391.69
2017-09-20T05:44:59.177Z,97390.47
2017-09-20T05:47:26.739Z,97399.29
2017-09-20T05:49:54.608Z,97394.65
2017-09-20T05:52:22.178Z,97394.67
2017-09-20T05:54:49.753Z,97392.69
2017-09-20T05:57:17.323Z,97392.76
2017-09-20T05:59:44.901Z,97388.53
2017-09-20T06:02:12.819Z,97388.08
2017-09-20T06:04:40.385Z,97389.36
2017-09-20T06:07:07.945Z,97394.46
2017-09-20T06:09:35.525Z,97395.75
2017-09-20T06:12:03.103Z,97398.73
2017-09-20T06:14:31.001Z,97406.03
2017-09-20T06:16:58.561Z,97395.94
2017-09-20T06:19:26.121Z,97401.48
2017-09-20T06:21:53.705Z,97404.53
2017-09-20T06:24:21.256Z,97407.08
2017-09-20T06:26:49.118Z,97408.80
2017-09-20T06:29:16.695Z,97405.47
2017-09-20T06:31:44.257Z,97405.92
2017-09-20T06:34:11.900Z,97410.57
2017-09-20T06:36:39.504Z,97418.27
2017-09-20T06:39:07.403Z,97416.64
2017-09-20T06:41:34.981Z,97419.65
2017-09-20T06:44:02.534Z,97423.02
2017-09-20T06:46:30.134Z,97419.24
2017-09-20T06:48:57.738Z,97418.81
2017-09-20T06:51:25.596Z,97419.31
2017-09-20T06:53:53.170Z,97423.55
2017-09-20T06:56:20.769Z,97428.25
2017-09-20T06:58:49.395Z,97423.62
2017-09-20T07:01:17.012Z,97427.88
2017-09-20T07:03:44.590Z,97425.81
2017-09-20T07:06:12.162Z,97423.32
2017-09-20T07:08:39.847Z,97427.19
2017-09-20T07:11:09.004Z,97424.28
2017-09-20T07:13:36.566Z,97426.41
2017-09-20T07:16:04.309Z,97426.86
2017-09-20T07:18:31.903Z,97434.93
2017-09-20T07:20:59.545Z,97435.40
2017-09-20T07:23:27.411Z,97432.02
2017-09-20T07:25:55.098Z,97439.69
2017-09-20T07:28:22.834Z,97436.30
2017-09-20T07:30:50.441Z,97434.21
2017-09-20T07:33:18.016Z,97436.79
2017-09-20T07:35:45.911Z,97433.47
2017-09-20T07:38:13.480Z,97438.13
2017-09-20T07:40:41.084Z,97442.31
2017-09-20T07:43:08.687Z,97437.61
2017-09-20T07:45:36.254Z,97442.30
2017-09-20T07:48:04.151Z,97434.77
2017-09-20T07:50:31.735Z,97437.41
2017-09-20T07:52:59.401Z,97443.36
2017-09-20T07:55:27.125Z,97440.89
2017-09-20T07:57:54.683Z,97438.81
2017-09-20T08:00:22.589Z,97442.70
2017-09-20T08:02:50.137Z,97446.14
2017-09-20T08:05:17.707Z,97440.59
2017-09-20T08:07:45.431Z,97444.39
2017-09-20T08:10:12.994Z,97446.50
2017-09-20T08:12:40.896Z,97441.06
2017-09-20T08:15:08.457Z,97445.34
2017-09-20T08:17:36.039Z,97443.70
2017-09-20T08:20:03.926Z,97440.36
2017-09-20T08:22:31.555Z,97441.27
2017-09-20T08:24:59.158Z,97440.86
2017-09-20T08:27:27.057Z,97435.84
2017-09-20T08:29:54.678Z,97438.98
2017-09-20T08:32:22.285Z,97437.85
2017-09-20T08:34:50.249Z,97437.59
2017-09-20T08:37:17.827Z,97438.55
2017-09-20T08:39:45.386Z,97442.02
2017-09-20T08:42:12.974Z,97441.59
2017-09-20T08:44:40.552Z,97443.77
2017-09-20T08:47:08.552Z,97441.97
2017-09-20T08:49:36.105Z,97440.20
2017-09-20T08:52:03.679Z,97441.45
2017-09-20T08:54:31.294Z,97444.02
2017-09-20T08:56:59.004Z,97451.20
2017-09-20T08:59:26.998Z,97447.84
2017-09-20T09:01:54.576Z,97443.55
2017-09-20T09:04:22.169Z,97448.56
2017-09-20T09:06:49.791Z,97448.14
2017-09-20T09:09:17.367Z,97453.70
2017-09-20T09:11:44.997Z,97451.59
2017-09-20T09:14:12.544Z,97453.84
2017-09-20T09:16:40.114Z,97451.69
2017-09-20T09:19:07.712Z,97451.70
2017-09-20T09:21:35.332Z,97458.51
2017-09-20T09:24:03.270Z,97453.05
2017-09-20T09:26:30.834Z,97450.95
2017-09-20T09:28:58.387Z,97451.78
2017-09-20T09:31:25.974Z,97455.20
2017-09-20T09:33:53.576Z,97450.98
2017-09-20T09:36:21.278Z,97464.92
2017-09-20T09:38:50.252Z,97458.14
2017-09-20T09:41:18.246Z,97458.14
2017-09-20T09:43:45.825Z,97466.58
2017-09-20T09:46:13.372Z,97457.28
2017-09-20T09:48:40.969Z,97470.42
2017-09-20T09:51:08.788Z,97468.79
2017-09-20T09:53:36.384Z,97467.96
2017-09-20T09:56:04.129Z,97465.02
2017-09-20T09:58:32.412Z,97470.11
2017-09-20T10:00:59.947Z,97468.91
2017-09-20T10:03:27.537Z,97468.08
2017-09-20T10:05:55.120Z,97469.87
2017-09-20T10:08:22.672Z,97463.16
2017-09-20T10:10:50.311Z,97459.00
2017-09-20T10:13:17.888Z,97458.15
2017-09-20T10:15:45.474Z,97450.17
2017-09-20T10:18:13.050Z,97457.44
2017-09-20T10:20:40.926Z,97461.80
2017-09-20T10:23:08.643Z,97450.08
2017-09-20T10:25:36.203Z,97445.88
2017-09-20T10:28:03.792Z,97446.74
2017-09-20T10:30:31.379Z,97447.73
2017-09-20T10:32:59.020Z,97448.20
2017-09-20T10:35:26.574Z,97447.37
2017-09-20T10:37:54.165Z,97445.28
2017-09-20T10:40:21.746Z,97445.78
2017-09-20T10:42:49.699Z,97441.22
2017-09-20T10:45:17.257Z,97441.63
2017-09-20T10:47:44.811Z,97438.72
2017-09-20T10:50:12.399Z,97438.33
2017-09-20T10:52:39.956Z,97434.95
2017-09-20T10:55:07.556Z,97438.81
2017-09-20T10:57:35.248Z,97442.66
2017-09-20T11:00:02.882Z,97434.20
2017-09-20T11:02:30.533Z,97434.28
2017-09-20T11:04:58.467Z,97424.12
2017-09-20T11:07:26.044Z,97416.59
2017-09-20T11:09:53.645Z,97405.14
2017-09-20T11:12:21.236Z,97405.58
2017-09-20T11:14:48.815Z,97397.48
2017-09-20T11:17:16.405Z,97400.48
2017-09-20T11:19:43.997Z,97397.05
2017-09-20T11:22:12.065Z,97401.31
2017-09-20T11:24:39.609Z,97402.18
2017-09-20T11:27:07.615Z,97397.06
2017-09-20T11:29:35.201Z,97395.77
2017-09-20T11:32:02.908Z,97397.88
2017-09-20T11:34:30.488Z,97387.66
2017-09-20T11:36:58.066Z,97387.27
2017-09-20T11:39:25.625Z,97389.81
2017-09-20T11:41:54.327Z,97381.72
2017-09-20T11:44:22.304Z,97384.72
2017-09-20T11:46:49.922Z,97373.64
2017-09-20T11:49:17.736Z,97377.88
2017-09-20T11:51:45.365Z,97373.20
2017-09-20T11:54:13.005Z,97369.36
2017-09-20T11:56:40.639Z,97376.18
2017-09-20T11:59:08.304Z,97381.30
2017-09-20T12:01:36.642Z,97371.48
2017-09-20T12:04:04.274Z,97368.53
2017-09-20T12:06:33.942Z,97371.47
2017-09-20T12:09:01.549Z,97371.47
2017-09-20T12:11:29.104Z,97374.88
2017-09-20T12:13:56.685Z,97379.56
2017-09-20T12:16:24.290Z,97367.66
2017-09-20T12:18:52.416Z,97368.09
2017-09-20T12:21:20.012Z,97370.66
2017-09-20T12:23:47.694Z,97370.23
2017-09-20T12:26:16.242Z,97376.20
2017-09-20T12:28:43.887Z,97376.63
2017-09-20T12:31:11.495Z,97373.66
2017-09-20T12:33:39.096Z,97374.06
2017-09-20T12:36:07.093Z,97377.91
2017-09-20T12:38:34.640Z,97383.00
2017-09-20T12:41:02.252Z,97389.81
2017-09-20T12:43:29.837Z,97383.42
2017-09-20T12:45:57.545Z,97381.26
2017-09-20T12:48:25.420Z,97382.53
2017-09-20T12:50:52.951Z,97381.23
2017-09-20T12:53:20.534Z,97375.30
2017-09-20T12:55:48.192Z,97382.13
2017-09-20T12:58:15.774Z,97381.27
2017-09-20T13:00:43.531Z,97391.95
2017-09-20T13:03:11.230Z,97397.05
2017-09-20T13:05:39.550Z,97397.47
2017-09-20T13:08:07.140Z,97395.28
2017-09-20T13:10:34.720Z,97394.79
2017-09-20T13:13:02.332Z,97397.30
2017-09-20T13:15:30.146Z,97397.63
2017-09-20T13:17:57.745Z,97399.31
2017-09-20T13:20:25.339Z,97398.45
2017-09-20T13:25:28.813Z,97400.84
2017-09-20T13:27:57.054Z,97397.92
2017-09-20T13:30:24.613Z,97399.66
2017-09-20T13:32:52.225Z,97402.30
2017-09-20T13:35:19.828Z,97402.30
2017-09-20T13:37:47.386Z,97403.59
2017-09-20T13:40:15.016Z,97408.61
2017-09-20T13:42:42.582Z,97411.17
2017-09-20T13:45:10.200Z,97403.53
2017-09-20T13:47:37.766Z,97405.14
2017-09-20T13:50:05.689Z,97413.13
2017-09-20T13:52:33.253Z,97407.93
2017-09-20T13:55:00.849Z,97408.69
2017-09-20T13:57:28.413Z,97407.67
2017-09-20T13:59:55.972Z,97405.19
2017-09-20T14:02:23.569Z,97396.29
2017-09-20T14:04:51.124Z,97407.35
2017-09-20T14:07:19.120Z,97410.31
2017-09-20T14:09:46.693Z,97406.05
2017-09-20T14:12:14.428Z,97404.30
2017-09-20T14:14:42.057Z,97401.82
2017-09-20T14:17:09.654Z,97387.44
2017-09-20T14:19:37.595Z,97384.84
2017-09-20T14:22:05.196Z,97375.98
2017-09-20T14:24:32.764Z,97380.64
2017-09-20T14:27:00.397Z,97384.49
2017-09-20T14:29:29.080Z,97377.70
2017-09-20T14:31:57.055Z,97383.62
2017-09-20T14:34:25.038Z,97386.97
2017-09-20T14:36:52.604Z,97377.17
2017-09-20T14:39:20.251Z,97383.56
2017-09-20T14:41:47.823Z,97386.55
2017-09-20T14:44:15.860Z,97392.08
2017-09-20T14:46:43.457Z,97385.30
2017-09-20T14:49:11.047Z,97385.30
2017-09-20T14:51:40.471Z,97390.42
2017-09-20T14:54:09.310Z,97378.97
2017-09-20T14:56:36.896Z,97384.52
2017-09-20T14:59:04.483Z,97384.02
2017-09-20T15:01:33.098Z,97383.38
2017-09-20T15:04:01.921Z,97375.75
2017-09-20T15:06:29.693Z,97379.06
2017-09-20T15:08:58.378Z,97379.73
2017-09-20T15:11:26.129Z,97369.25
2017-09-20T15:13:53.716Z,97369.59
2017-09-20T15:16:21.313Z,97375.31
2017-09-20T15:18:53.460Z,97374.38
2017-09-20T15:21:21.041Z,97371.48
2017-09-20T15:23:48.783Z,97381.41
2017-09-20T15:26:16.373Z,97371.72
2017-09-20T15:28:43.924Z,97373.17
2017-09-20T15:31:11.891Z,97377.47
2017-09-20T15:33:39.451Z,97371.93
2017-09-20T15:36:07.005Z,97374.92
2017-09-20T15:38:39.123Z,97375.75
2017-09-20T15:41:06.726Z,97374.88
2017-09-20T15:43:35.955Z,97373.59
2017-09-20T15:46:03.541Z,97378.27
2017-09-20T15:48:31.116Z,97376.56
2017-09-20T15:50:59.170Z,97371.48
2017-09-20T15:53:26.798Z,97380.80
2017-09-20T15:55:56.400Z,97383.30
2017-09-20T15:58:24.011Z,97390.10
2017-09-20T16:00:51.642Z,97389.23
2017-09-20T16:03:19.239Z,97384.52
2017-09-20T16:05:46.878Z,97387.48
2017-09-20T16:08:15.529Z,97382.37
2017-09-20T16:10:43.163Z,97381.50
2017-09-20T16:13:12.240Z,97386.63
2017-09-20T16:15:39.773Z,97387.45
2017-09-20T16:18:07.454Z,97389.11
2017-09-20T16:20:35.038Z,97397.59
2017-09-20T16:23:02.613Z,97395.02
2017-09-20T16:25:30.507Z,97398.80
2017-09-20T16:27:58.094Z,97392.82
2017-09-20T16:30:25.662Z,97404.27
2017-09-20T16:32:53.326Z,97406.77
2017-09-20T16:35:20.892Z,97404.20
2017-09-20T16:37:48.819Z,97405.47
2017-09-20T16:40:17.245Z,97407.17
2017-09-20T16:42:44.815Z,97407.55
2017-09-20T16:45:12.433Z,97407.93
2017-09-20T16:47:40.142Z,97412.58
2017-09-20T16:50:08.061Z,97423.14
2017-09-20T16:52:35.682Z,97422.66
2017-09-20T16:55:03.269Z,97426.04
2017-09-20T16:57:30.905Z,97425.94
2017-09-20T16:59:58.510Z,97426.74
2017-09-20T17:02:26.268Z,97427.53
2017-09-20T17:04:53.861Z,97437.27
2017-09-20T17:07:21.633Z,97436.36
2017-09-20T17:09:49.224Z,97439.27
2017-09-20T17:12:16.960Z,97442.20
2017-09-20T17:14:44.693Z,97436.23
2017-09-20T17:17:13.472Z,97441.69
2017-09-20T17:19:41.248Z,97443.77
2017-09-20T17:22:08.893Z,97447.09
2017-09-20T17:24:36.549Z,97442.41
2017-09-20T17:27:04.619Z,97448.73
2017-09-20T17:29:32.311Z,97452.52
2017-09-20T17:31:59.927Z,97459.28
2017-09-20T17:34:27.818Z,97460.94
2017-09-20T17:36:55.374Z,97457.50
2017-09-20T17:39:23.819Z,97464.27
2017-09-20T17:41:51.434Z,97468.45
2017-09-20T17:44:19.824Z,97470.98
2017-09-20T17:46:47.465Z,97475.62
2017-09-20T17:49:15.019Z,97469.63
2017-09-20T17:51:42.633Z,97470.06
2017-09-20T17:54:10.201Z,97470.86
2017-09-20T17:56:38.108Z,97476.75
2017-09-20T17:59:05.684Z,97482.66
2017-09-20T18:01:33.400Z,97482.60
2017-09-20T18:04:01.053Z,97483.41
2017-09-20T18:06:28.686Z,97482.55
2017-09-20T18:08:56.292Z,97487.61
2017-09-20T18:11:23.890Z,97489.71
2017-09-20T18:13:51.755Z,97491.41
2017-09-20T18:16:19.345Z,97494.34
2017-09-20T18:18:47.045Z,97493.44
2017-09-20T18:21:14.650Z,97500.59
2017-09-20T18:23:42.252Z,97506.09
2017-09-20T18:26:09.884Z,97500.58
2017-09-20T18:28:37.515Z,97500.53
2017-09-20T18:31:05.339Z,97503.08
2017-09-20T18:33:32.923Z,97497.52
2017-09-20T18:36:00.728Z,97512.78
2017-09-20T18:38:28.608Z,97507.30
2017-09-20T18:40:56.248Z,97508.14
2017-09-20T18:43:23.843Z,97504.72
2017-09-20T18:45:51.473Z,97507.67
2017-09-20T18:48:19.113Z,97508.95
2017-09-20T18:50:46.694Z,97507.25
2017-09-20T18:53:14.495Z,97507.67
2017-09-20T18:55:42.118Z,97516.14
2017-09-20T18:58:09.780Z,97518.66
2017-09-20T19:00:37.636Z,97516.53
2017-09-20T19:03:05.238Z,97518.64
2017-09-20T19:05:32.870Z,97520.77
2017-09-20T19:08:00.459Z,97520.77
2017-09-20T19:10:28.058Z,97520.71
2017-09-20T19:12:55.664Z,97517.73
2017-09-20T19:15:23.291Z,97521.08
2017-09-20T19:17:50.921Z,97519.82
2017-09-20T19:20:18.545Z,97518.95
2017-09-20T19:22:46.210Z,97521.50
2017-09-20T19:25:13.870Z,97526.59
2017-09-20T19:27:41.598Z,97529.14
2017-09-20T19:30:09.196Z,97533.41
2017-09-20T19:32:37.235Z,97527.91
2017-09-20T19:35:05.030Z,97538.89
2017-09-20T19:37:32.763Z,97527.89
2017-09-20T19:40:00.431Z,97528.70
2017-09-20T19:42:28.061Z,97537.99
2017-09-20T19:44:55.716Z,97539.13
2017-09-20T19:47:23.374Z,97547.53
2017-09-20T19:49:51.018Z,97548.77
2017-09-20T19:52:18.704Z,97548.70
2017-09-20T19:54:46.316Z,97553.63
2017-09-20T19:57:13.923Z,97544.20
2017-09-20T19:59:41.956Z,97549.28
2017-09-20T20:02:09.526Z,97547.86
2017-09-20T20:04:37.323Z,97547.40
2017-09-20T20:07:04.986Z,97545.74
2017-09-20T20:09:32.611Z,97547.09
2017-09-20T20:12:00.275Z,97541.14
2017-09-20T20:14:28.042Z,97533.05
2017-09-20T20:16:55.662Z,97542.34
2017-09-20T20:19:23.330Z,97537.36
2017-09-20T20:21:51.221Z,97536.99
2017-09-20T20:24:18.802Z,97535.36
2017-09-20T20:26:46.374Z,97548.47
2017-09-20T20:29:14.008Z,97535.75
2017-09-20T20:31:41.605Z,97539.96
2017-09-20T20:34:09.214Z,97536.58
2017-09-20T20:36:36.798Z,97539.09
2017-09-20T20:39:04.456Z,97536.12
2017-09-20T20:41:32.027Z,97537.41
2017-09-20T20:43:59.624Z,97543.31
2017-09-20T20:46:27.187Z,97546.27
2017-09-20T20:48:55.144Z,97545.84
2017-09-20T20:51:22.723Z,97545.39
2017-09-20T20:53:50.294Z,97546.58
2017-09-20T20:56:17.886Z,97549.08
2017-09-20T20:58:45.690Z,97552.41
2017-09-20T21:01:13.417Z,97552.41
2017-09-20T21:03:41.061Z,97552.03
2017-09-20T21:06:09.578Z,97557.94
2017-09-20T21:08:37.192Z,97557.48
2017-09-20T21:11:05.182Z,97552.84
2017-09-20T21:13:33.664Z,97550.72
2017-09-20T21:16:01.239Z,97553.66
2017-09-20T21:18:28.885Z,97551.56
2017-09-20T21:20:56.453Z,97546.48
2017-09-20T21:23:24.061Z,97548.98
2017-09-20T21:25:51.646Z,97552.75
2017-09-20T21:28:19.247Z,97552.75
2017-09-20T21:30:47.493Z,97552.73
2017-09-20T21:33:15.374Z,97549.38
2017-09-20T21:35:42.969Z,97553.64
2017-09-20T21:38:10.579Z,97554.91
2017-09-20T21:40:38.277Z,97555.31
2017-09-20T21:43:05.857Z,97557.45
2017-09-20T21:45:33.456Z,97559.53
2017-09-20T21:48:02.149Z,97559.09
2017-09-20T21:50:29.762Z,97559.51
2017-09-20T21:52:57.360Z,97562.86
2017-09-20T21:55:24.951Z,97565.38
2017-09-20T21:57:52.714Z,97568.30
2017-09-20T22:00:20.677Z,97563.27
2017-09-20T22:02:48.276Z,97571.34
2017-09-20T22:05:15.830Z,97572.95
2017-09-20T22:07:43.969Z,97572.52
2017-09-20T22:10:11.646Z,97571.73
2017-09-20T22:12:39.226Z,97568.70
2017-09-20T22:15:18.464Z,97567.03
2017-09-20T22:17:57.900Z,97563.70
2017-09-20T22:20:37.410Z,97561.57
2017-09-20T22:23:16.917Z,97561.57
2017-09-20T22:25:56.333Z,97560.70
2017-09-20T22:28:23.935Z,97559.82
2017-09-20T22:30:51.613Z,97556.85
2017-09-20T22:33:19.312Z,97554.75
2017-09-20T22:35:47.544Z,97550.07
2017-09-20T22:38:15.384Z,97545.86
2017-09-20T22:40:42.926Z,97548.40
2017-09-20T22:43:10.504Z,97553.86
2017-09-20T22:45:38.062Z,97556.38
2017-09-20T22:48:05.629Z,97555.05
2017-09-20T22:50:34.436Z,97549.13
2017-09-20T22:53:02.012Z,97550.79
2017-09-20T22:55:29.703Z,97551.61
2017-09-20T22:57:57.785Z,97549.45
2017-09-20T23:00:25.378Z,97552.42
2017-09-20T23:02:52.962Z,97548.61
2017-09-20T23:05:20.911Z,97546.95
2017-09-20T23:07:48.488Z,97548.61
2017-09-20T23:10:16.068Z,97546.95
2017-09-20T23:12:43.644Z,97556.64
2017-09-20T23:15:11.225Z,97563.39
2017-09-20T23:17:38.887Z,97558.69
2017-09-20T23:20:06.441Z,97564.19
2017-09-20T23:22:34.041Z,97563.32
2017-09-20T23:25:01.615Z,97567.08
2017-09-20T23:27:29.226Z,97567.92
2017-09-20T23:29:56.796Z,97561.92
2017-09-20T23:32:24.790Z,97557.28
2017-09-20T23:34:52.367Z,97556.83
2017-09-20T23:37:19.937Z,97558.45
2017-09-20T23:39:47.598Z,97558.45
2017-09-20T23:42:15.289Z,97555.92
2017-09-20T23:44:43.018Z,97563.98
2017-09-20T23:47:10.591Z,97563.55
2017-09-20T23:49:38.169Z,97569.52
2017-09-20T23:52:05.750Z,97569.89
2017-09-20T23:54:33.333Z,97575.84
2017-09-20T23:57:01.003Z,97577.53
2017-09-20T23:59:29.039Z,97578.38
